createdAt,value
2022-09-12T00:00:55.829Z,62.45
2022-09-12T00:06:09.273Z,62.45
2022-09-12T00:11:01.790Z,62.57
2022-09-12T00:16:01.587Z,62.66
2022-09-12T00:21:01.564Z,62.72
2022-09-12T00:26:01.463Z,62.76
2022-09-12T00:31:01.385Z,62.83
2022-09-12T00:36:01.364Z,62.92
2022-09-12T00:41:01.256Z,62.99
2022-09-12T00:46:01.285Z,63.05
2022-09-12T00:51:01.173Z,63.11
2022-09-12T00:56:01.077Z,63.17
2022-09-12T01:01:01.312Z,63.24
2022-09-12T01:06:00.941Z,63.37
2022-09-12T01:11:00.915Z,63.41
2022-09-12T01:16:00.791Z,63.46
2022-09-12T01:21:00.736Z,63.52
2022-09-12T01:26:00.679Z,63.59
2022-09-12T01:31:00.574Z,63.71
2022-09-12T01:36:00.589Z,63.79
2022-09-12T01:41:00.455Z,63.87
2022-09-12T01:46:00.415Z,63.92
2022-09-12T01:51:00.315Z,63.98
2022-09-12T01:56:00.286Z,64.02
2022-09-12T02:01:00.272Z,64.11
2022-09-12T02:06:00.172Z,64.18
2022-09-12T02:11:00.059Z,64.25
2022-09-12T02:16:00.009Z,64.31
2022-09-12T02:20:59.963Z,64.36
2022-09-12T02:25:59.911Z,64.41
2022-09-12T02:30:59.827Z,64.45
2022-09-12T02:35:59.744Z,64.54
2022-09-12T02:40:59.697Z,64.61
2022-09-12T02:45:59.688Z,64.68
2022-09-12T02:50:59.567Z,64.73
2022-09-12T02:55:59.527Z,64.80
2022-09-12T03:00:59.464Z,64.86
2022-09-12T03:05:59.423Z,64.91
2022-09-12T03:10:59.303Z,64.97
2022-09-12T03:15:59.164Z,65.02
2022-09-12T03:20:59.162Z,65.08
2022-09-12T03:25:59.088Z,65.12
2022-09-12T03:30:59.029Z,65.16
2022-09-12T03:35:58.927Z,65.18
2022-09-12T03:40:58.869Z,65.23
2022-09-12T03:45:58.855Z,65.26
2022-09-12T03:50:58.749Z,65.32
2022-09-12T03:55:58.652Z,65.35
2022-09-12T04:00:58.649Z,65.35
2022-09-12T04:05:58.544Z,65.39
2022-09-12T04:10:58.457Z,65.43
2022-09-12T04:16:07.447Z,65.41
2022-09-12T04:21:00.370Z,65.46
2022-09-12T04:26:00.457Z,65.47
2022-09-12T04:31:00.258Z,65.45
2022-09-12T04:36:00.169Z,65.46
2022-09-12T04:41:00.096Z,65.50
2022-09-12T04:46:01.092Z,65.53
2022-09-12T04:50:59.943Z,65.55
2022-09-12T04:56:00.044Z,65.58
2022-09-12T05:01:01.708Z,65.65
2022-09-12T05:05:59.757Z,65.71
2022-09-12T05:10:59.885Z,65.76
2022-09-12T05:16:00.680Z,65.77
2022-09-12T05:20:59.553Z,65.78
2022-09-12T05:26:00.415Z,65.78
2022-09-12T05:30:59.497Z,65.76
2022-09-12T05:35:59.349Z,65.68
2022-09-12T05:40:59.296Z,65.66
2022-09-12T05:45:59.223Z,65.62
2022-09-12T05:51:00.104Z,65.57
2022-09-12T05:56:00.037Z,65.39
2022-09-12T06:01:00.028Z,65.26
2022-09-12T06:05:59.011Z,65.16
2022-09-12T06:11:02.155Z,65.12
2022-09-12T06:15:58.875Z,64.98
2022-09-12T06:20:58.750Z,64.83
2022-09-12T06:25:59.648Z,64.61
2022-09-12T06:30:58.671Z,64.48
2022-09-12T06:35:58.563Z,64.63
2022-09-12T06:40:58.533Z,64.87
2022-09-12T06:45:58.438Z,65.18
2022-09-12T06:50:58.371Z,65.21
2022-09-12T06:55:58.303Z,65.18
2022-09-12T07:00:59.562Z,65.27
2022-09-12T07:05:58.419Z,65.22
2022-09-12T07:10:58.089Z,65.14
2022-09-12T07:15:58.002Z,65.08
2022-09-12T07:20:57.954Z,65.09
2022-09-12T07:25:57.916Z,64.76
2022-09-12T07:30:57.993Z,64.27
2022-09-12T07:35:57.784Z,63.94
2022-09-12T07:40:57.679Z,63.89
2022-09-12T07:45:57.650Z,63.67
2022-09-12T07:50:57.551Z,63.38
2022-09-12T07:55:57.487Z,63.15
2022-09-12T08:00:57.420Z,62.98
2022-09-12T08:05:57.352Z,62.49
2022-09-12T08:10:57.309Z,62.21
2022-09-12T08:15:57.253Z,62.11
2022-09-12T08:20:57.173Z,62.65
2022-09-12T08:25:57.101Z,62.77
2022-09-12T08:30:57.100Z,61.58
2022-09-12T08:35:57.002Z,59.65
2022-09-12T08:40:56.936Z,57.85
2022-09-12T08:45:56.883Z,54.84
2022-09-12T08:50:56.755Z,52.40
2022-09-12T08:55:56.685Z,49.79
2022-09-12T09:00:56.615Z,47.19
2022-09-12T09:05:56.557Z,45.34
2022-09-12T09:10:56.664Z,42.46
2022-09-12T09:15:56.437Z,40.62
2022-09-12T09:20:56.370Z,40.60
2022-09-12T09:25:56.304Z,40.06
2022-09-12T09:30:56.307Z,41.26
2022-09-12T09:35:56.157Z,37.10
2022-09-12T09:40:56.108Z,34.12
2022-09-12T09:45:56.068Z,31.49
2022-09-12T09:50:55.943Z,28.79
2022-09-12T09:55:55.904Z,29.82
2022-09-12T10:00:56.823Z,29.82
2022-09-12T10:05:55.772Z,28.18
2022-09-12T10:10:55.718Z,26.56
2022-09-12T10:15:55.738Z,28.04
2022-09-12T10:20:55.561Z,28.65
2022-09-12T10:25:55.518Z,29.07
2022-09-12T10:30:55.547Z,29.59
2022-09-12T10:35:55.403Z,27.60
2022-09-12T10:40:55.343Z,27.69
2022-09-12T10:45:55.285Z,26.73
2022-09-12T10:50:55.205Z,26.18
2022-09-12T10:55:55.132Z,26.26
2022-09-12T11:00:55.070Z,27.54
2022-09-12T11:05:55.016Z,26.57
2022-09-12T11:10:54.950Z,25.54
2022-09-12T11:15:54.943Z,25.79
2022-09-12T11:20:54.807Z,25.80
2022-09-12T11:25:54.788Z,25.86
2022-09-12T11:30:54.750Z,26.21
2022-09-12T11:35:55.661Z,26.16
2022-09-12T11:40:54.576Z,25.70
2022-09-12T11:45:54.593Z,25.72
2022-09-12T11:50:54.421Z,26.02
2022-09-12T11:55:54.376Z,25.62
2022-09-12T12:00:54.300Z,25.82
2022-09-12T12:05:54.270Z,25.66
2022-09-12T12:10:54.172Z,25.74
2022-09-12T12:15:54.157Z,25.99
2022-09-12T12:20:54.100Z,26.44
2022-09-12T12:25:54.057Z,26.66
2022-09-12T12:30:54.048Z,27.22
2022-09-12T12:35:53.896Z,27.17
2022-09-12T12:40:53.786Z,28.04
2022-09-12T12:45:53.783Z,29.02
2022-09-12T12:50:53.680Z,29.46
2022-09-12T12:55:53.683Z,29.54
2022-09-12T13:00:53.552Z,30.01
2022-09-12T13:05:53.461Z,30.05
2022-09-12T13:10:53.573Z,30.42
2022-09-12T13:15:53.645Z,30.80
2022-09-12T13:20:53.261Z,31.21
2022-09-12T13:25:53.240Z,31.44
2022-09-12T13:30:53.229Z,31.80
2022-09-12T13:35:53.242Z,31.83
2022-09-12T13:40:53.015Z,31.97
2022-09-12T13:45:52.991Z,32.12
2022-09-12T13:50:52.883Z,32.25
2022-09-12T13:55:52.827Z,32.39
2022-09-12T14:00:52.784Z,32.36
2022-09-12T14:05:52.700Z,32.50
2022-09-12T14:10:52.616Z,32.67
2022-09-12T14:15:52.754Z,32.83
2022-09-12T14:20:52.552Z,32.83
2022-09-12T14:25:52.456Z,33.19
2022-09-12T14:30:52.383Z,33.28
2022-09-12T14:35:52.312Z,33.45
2022-09-12T14:40:52.289Z,33.61
2022-09-12T14:45:52.218Z,33.68
2022-09-12T14:50:52.142Z,33.92
2022-09-12T14:55:52.035Z,34.13
2022-09-12T15:00:51.956Z,34.37
2022-09-12T15:05:51.879Z,34.50
2022-09-12T15:10:51.901Z,34.57
2022-09-12T15:15:51.856Z,34.77
2022-09-12T15:20:51.705Z,34.92
2022-09-12T15:25:51.644Z,35.12
2022-09-12T15:30:51.612Z,35.29
2022-09-12T15:35:51.576Z,35.75
2022-09-12T15:40:51.474Z,36.03
2022-09-12T15:45:51.411Z,36.21
2022-09-12T15:50:51.331Z,36.39
2022-09-12T15:55:51.268Z,36.64
2022-09-12T16:00:51.173Z,36.92
2022-09-12T16:05:51.208Z,37.13
2022-09-12T16:10:51.159Z,37.24
2022-09-12T16:15:50.979Z,37.38
2022-09-12T16:20:50.931Z,37.42
2022-09-12T16:25:50.862Z,37.62
2022-09-12T16:30:50.821Z,37.98
2022-09-12T16:35:50.719Z,38.33
2022-09-12T16:40:50.675Z,38.66
2022-09-12T16:45:50.590Z,39.05
2022-09-12T16:50:50.535Z,39.37
2022-09-12T16:55:50.472Z,39.70
2022-09-12T17:00:50.428Z,40.06
2022-09-12T17:05:50.313Z,40.25
2022-09-12T17:10:50.273Z,40.43
2022-09-12T17:15:50.253Z,40.69
2022-09-12T17:20:50.174Z,40.91
2022-09-12T17:25:50.053Z,41.09
2022-09-12T17:30:49.996Z,41.30
2022-09-12T17:35:49.921Z,41.56
2022-09-12T17:40:59.522Z,41.81
2022-09-12T17:45:50.822Z,42.04
2022-09-12T17:50:49.746Z,42.31
2022-09-12T17:55:54.158Z,42.53
2022-09-12T18:00:49.603Z,42.75
2022-09-12T18:05:49.549Z,43.02
2022-09-12T18:10:49.468Z,43.33
2022-09-12T18:15:49.421Z,43.53
2022-09-12T18:20:49.338Z,43.65
2022-09-12T18:25:49.306Z,43.85
2022-09-12T18:30:49.248Z,43.96
2022-09-12T18:35:49.195Z,44.12
2022-09-12T18:40:49.090Z,44.24
2022-09-12T18:45:49.028Z,44.39
2022-09-12T18:50:48.921Z,44.55
2022-09-12T18:55:48.882Z,44.70
2022-09-12T19:00:48.853Z,44.86
2022-09-12T19:05:48.740Z,45.00
2022-09-12T19:10:48.767Z,45.15
2022-09-12T19:15:48.671Z,45.30
2022-09-12T19:20:48.545Z,45.39
2022-09-12T19:25:48.513Z,45.53
2022-09-12T19:30:48.704Z,45.67
2022-09-12T19:35:48.385Z,45.93
2022-09-12T19:40:48.270Z,46.09
2022-09-12T19:45:48.276Z,46.22
2022-09-12T19:50:48.127Z,46.39
2022-09-12T19:55:48.079Z,46.68
2022-09-12T20:00:48.226Z,47.02
2022-09-12T20:05:48.095Z,47.34
2022-09-12T20:10:47.913Z,47.57
2022-09-12T20:15:47.885Z,47.82
2022-09-12T20:20:47.766Z,48.06
2022-09-12T20:25:47.701Z,48.27
2022-09-12T20:30:47.713Z,48.45
2022-09-12T20:35:47.545Z,48.66
2022-09-12T20:40:47.489Z,48.86
2022-09-12T20:45:47.419Z,49.05
2022-09-12T20:50:47.386Z,49.28
2022-09-12T20:55:47.315Z,49.47
2022-09-12T21:00:47.231Z,49.54
2022-09-12T21:05:47.158Z,49.65
2022-09-12T21:10:47.088Z,49.73
2022-09-12T21:15:47.056Z,49.80
2022-09-12T21:20:46.953Z,49.86
2022-09-12T21:25:52.479Z,49.94
2022-09-12T21:30:47.855Z,50.11
2022-09-12T21:35:46.806Z,50.20
2022-09-12T21:40:46.690Z,50.28
2022-09-12T21:45:46.615Z,50.38
2022-09-12T21:50:46.566Z,50.55
2022-09-12T21:55:46.508Z,50.72
2022-09-12T22:00:46.531Z,50.83
2022-09-12T22:05:46.374Z,50.92
2022-09-12T22:10:46.284Z,51.03
2022-09-12T22:15:46.310Z,51.22
2022-09-12T22:20:46.224Z,51.42
2022-09-12T22:25:46.101Z,51.65
2022-09-12T22:30:46.131Z,51.83
2022-09-12T22:35:45.965Z,51.97
2022-09-12T22:40:45.901Z,52.08
2022-09-12T22:45:45.878Z,52.22
2022-09-12T22:50:45.809Z,52.42
2022-09-12T22:55:45.695Z,52.64
2022-09-12T23:00:45.673Z,52.86
2022-09-12T23:05:45.553Z,53.00
2022-09-12T23:10:45.686Z,53.11
2022-09-12T23:15:45.440Z,53.21
2022-09-12T23:20:45.418Z,53.33
2022-09-12T23:25:45.306Z,53.43
2022-09-12T23:30:45.232Z,53.51
2022-09-12T23:35:45.166Z,53.58
2022-09-12T23:40:45.097Z,53.65
2022-09-12T23:45:45.077Z,53.71
2022-09-12T23:50:44.946Z,53.78
2022-09-12T23:55:44.888Z,53.86
